Aviation Digital Data Service (ADDS)

Output produced by METARs form (0605 UTC 24 January 2019)
found at http://aviationweather.gov/metar/data/
 
KMSY 240553Z 30018G22KT 10SM OVC020 04/01 A3003 RMK AO2 PK WND 30027/0529 SLP171 60000 T00390011 10133 20039 402170039 50010
KMSY 240534Z 2406/2512 30016G22KT P6SM OVC013 
     FM240700 32015G25KT P6SM BKN035 
     FM240800 32014G25KT P6SM SCT060 
     FM241100 33010G18KT P6SM FEW220 
     FM251000 35005KT P6SM SKC